Overview Statistics Trail Chart Weather Telemetry Raw packets
 

This is the latest recevied weather packets stored in our database for station/object SP2CDN-10. If no packets are shown the sender has not sent any weather packets the latest 10 day(s).

<< 12 13 14 15 16 >>
Time Temp. Humidity Pressure Rain* Wind** Luminosity Snow
1787923687 25.56° C 37% 1014.4 hPa - - - -
1787921410 26.67° C 33% 1014.1 hPa - - - -
1787919123 25.56° C 36% 1014.9 hPa - - - -
1787916842 26.67° C 36% 1015.4 hPa - - - -
1787914560 27.22° C 35% 1015.8 hPa - - - -
1787913193 26.11° C 38% 1016.2 hPa - - - -
1787910911 24.44° C 44% 1016.7 hPa - - - -
1787908630 23.33° C 47% 1017.5 hPa - - - -
1787906348 21.67° C 55% 1017.7 hPa - - - -
1787904066 20.56° C 58% 1017.9 hPa - - - -
1787901784 18.33° C 63% 1018.2 hPa - - - -
1787899503 17.78° C 65% 1018.6 hPa - - - -
1787897226 16.67° C 70% 1018.7 hPa - - - -
1787894939 15.56° C 71% 1018.8 hPa - - - -
1787892657 15° C 74% 1019 hPa - - - -
1787890376 13.89° C 78% 1019.3 hPa - - - -
1787888093 13.89° C 78% 1019.4 hPa - - - -
1787885812 13.89° C 78% 1019.6 hPa - - - -
1787883530 13.89° C 78% 1019.6 hPa - - - -
1787881248 14.44° C 77% 1019.5 hPa - - - -
1787878967 14.44° C 78% 1019.7 hPa - - - -
1787876684 14.44° C 78% 1019.9 hPa - - - -
1787874403 15° C 76% 1020.1 hPa - - - -
1787872121 15° C 74% 1020.6 hPa - - - -
1787869840 15.56° C 72% 1020.8 hPa - - - -

* Rain since midnight (hover to see other rain measurements)
** Current wind speed in m/s (hover to see current wind gust speed)